createdAt,value
2017-12-02T00:00:30.984Z,-1.32
2017-12-02T00:01:36.987Z,-1.31
2017-12-02T00:02:42.950Z,-1.29
2017-12-02T00:03:48.924Z,-1.28
2017-12-02T00:04:54.870Z,-1.29
2017-12-02T00:06:01.165Z,-1.30
2017-12-02T00:07:07.202Z,-1.32
2017-12-02T00:08:13.123Z,-1.29
2017-12-02T00:09:19.112Z,-1.29
2017-12-02T00:10:25.079Z,-1.29
2017-12-02T00:11:31.092Z,-1.32
2017-12-02T00:12:37.383Z,-1.32
2017-12-02T00:13:43.359Z,-1.32
2017-12-02T00:14:49.299Z,-1.31
2017-12-02T00:15:55.244Z,-1.29
2017-12-02T00:17:01.242Z,-1.35
2017-12-02T00:18:07.686Z,-1.44
2017-12-02T00:19:13.697Z,-1.48
2017-12-02T00:20:19.639Z,-1.49
2017-12-02T00:21:25.604Z,-1.52
2017-12-02T00:22:31.636Z,-1.54
2017-12-02T00:23:37.712Z,-1.53
2017-12-02T00:24:43.684Z,-1.54
2017-12-02T00:25:49.628Z,-1.53
2017-12-02T00:26:55.644Z,-1.50
2017-12-02T00:28:01.794Z,-1.49
2017-12-02T00:29:07.779Z,-1.47
2017-12-02T00:30:14.027Z,-1.51
2017-12-02T00:31:20.027Z,-1.54
2017-12-02T00:32:26.038Z,-1.57
2017-12-02T00:33:32.012Z,-1.59
2017-12-02T00:34:37.943Z,-1.62
2017-12-02T00:35:43.861Z,-1.66
2017-12-02T00:36:50.341Z,-1.67
2017-12-02T00:37:56.455Z,-1.72
2017-12-02T00:39:02.807Z,-1.74
2017-12-02T00:40:08.968Z,-1.77
2017-12-02T00:41:15.077Z,-1.83
2017-12-02T00:42:21.202Z,-1.86
2017-12-02T00:43:27.726Z,-1.83
2017-12-02T00:44:33.887Z,-1.86
2017-12-02T00:45:40.136Z,-1.84
2017-12-02T00:46:46.588Z,-1.84
2017-12-02T00:47:53.343Z,-1.82
2017-12-02T00:48:59.512Z,-1.82
2017-12-02T00:50:05.940Z,-1.79
2017-12-02T00:51:12.121Z,-1.77
2017-12-02T00:52:18.376Z,-1.78
2017-12-02T00:53:24.524Z,-1.78
2017-12-02T00:54:30.711Z,-1.81
2017-12-02T00:55:36.870Z,-1.80
2017-12-02T00:56:43.384Z,-1.82
2017-12-02T00:57:49.397Z,-1.91
2017-12-02T00:58:55.566Z,-1.95
2017-12-02T01:00:01.730Z,-1.96
2017-12-02T01:01:07.780Z,-1.96
2017-12-02T01:02:13.909Z,-1.98
2017-12-02T01:03:20.153Z,-2.00
2017-12-02T01:04:26.274Z,-1.98
2017-12-02T01:05:32.399Z,-1.94
2017-12-02T01:06:38.564Z,-1.94
2017-12-02T01:07:44.796Z,-1.92
2017-12-02T01:08:50.953Z,-1.90
2017-12-02T01:09:57.433Z,-1.89
2017-12-02T01:11:03.707Z,-1.90
2017-12-02T01:12:09.978Z,-1.93
2017-12-02T01:13:16.110Z,-1.94
2017-12-02T01:14:22.415Z,-1.94
2017-12-02T01:15:28.666Z,-1.92
2017-12-02T01:16:35.261Z,-1.93
2017-12-02T01:17:41.570Z,-1.94
2017-12-02T01:18:47.654Z,-1.93
2017-12-02T01:19:53.621Z,-1.94
2017-12-02T01:21:00.043Z,-1.96
2017-12-02T01:22:06.165Z,-1.97
2017-12-02T01:23:12.532Z,-1.98
2017-12-02T01:24:18.821Z,-2.01
2017-12-02T01:25:26.098Z,-2.04
2017-12-02T01:26:32.305Z,-2.05
2017-12-02T01:27:38.548Z,-2.04
2017-12-02T01:28:44.768Z,-2.03
2017-12-02T01:29:51.219Z,-2.03
2017-12-02T01:30:57.332Z,-2.01
2017-12-02T01:32:03.582Z,-1.99
2017-12-02T01:33:09.879Z,-1.98
2017-12-02T01:34:15.998Z,-1.97
2017-12-02T01:35:22.194Z,-1.97
2017-12-02T01:36:28.638Z,-1.97
2017-12-02T01:37:34.918Z,-1.95
2017-12-02T01:38:40.908Z,-1.93
2017-12-02T01:39:46.831Z,-1.93
2017-12-02T01:40:52.838Z,-1.90
2017-12-02T01:41:58.892Z,-1.91
2017-12-02T01:43:06.735Z,-1.93
2017-12-02T01:44:12.765Z,-1.93
2017-12-02T01:45:21.476Z,-1.92
2017-12-02T01:46:27.627Z,-1.93
2017-12-02T01:47:33.883Z,-1.91
2017-12-02T01:48:39.839Z,-1.93
2017-12-02T01:49:46.196Z,-1.94
2017-12-02T01:50:52.160Z,-1.93
2017-12-02T01:51:58.106Z,-1.94
2017-12-02T01:53:04.071Z,-1.93
2017-12-02T01:54:10.079Z,-1.93
2017-12-02T01:55:16.011Z,-1.88
2017-12-02T01:56:22.377Z,-1.82
2017-12-02T01:57:28.382Z,-1.76
2017-12-02T01:58:34.394Z,-1.73
2017-12-02T01:59:40.379Z,-1.69
2017-12-02T02:00:46.319Z,-1.73
2017-12-02T02:01:52.270Z,-1.76
2017-12-02T02:02:58.691Z,-1.80
2017-12-02T02:04:04.977Z,-1.77
2017-12-02T02:05:11.167Z,-1.76
2017-12-02T02:06:17.383Z,-1.81
2017-12-02T02:07:23.538Z,-1.82
2017-12-02T02:08:29.705Z,-1.84
2017-12-02T02:09:36.297Z,-1.85
2017-12-02T02:10:42.447Z,-1.86
2017-12-02T02:11:48.570Z,-1.83
2017-12-02T02:12:54.727Z,-1.79
2017-12-02T02:14:00.891Z,-1.73
2017-12-02T02:15:07.029Z,-1.69
2017-12-02T02:16:13.706Z,-1.69
2017-12-02T02:17:19.899Z,-1.63
2017-12-02T02:18:25.856Z,-1.59
2017-12-02T02:19:31.803Z,-1.56
2017-12-02T02:20:37.754Z,-1.59
2017-12-02T02:21:43.998Z,-1.55
2017-12-02T02:22:50.161Z,-1.50
2017-12-02T02:23:56.332Z,-1.45
2017-12-02T02:25:02.552Z,-1.39
2017-12-02T02:26:08.756Z,-1.34
2017-12-02T02:27:15.452Z,-1.40
2017-12-02T02:28:21.648Z,-1.50
2017-12-02T02:29:27.843Z,-1.54
2017-12-02T02:30:34.118Z,-1.55
2017-12-02T02:31:40.306Z,-1.55
2017-12-02T02:32:46.974Z,-1.56
2017-12-02T02:33:53.158Z,-1.54
2017-12-02T02:34:59.376Z,-1.53
2017-12-02T02:36:05.498Z,-1.58
2017-12-02T02:37:11.639Z,-1.57
2017-12-02T02:38:18.292Z,-1.62
2017-12-02T02:39:24.452Z,-1.61
2017-12-02T02:40:30.615Z,-1.56
2017-12-02T02:41:36.797Z,-1.50
2017-12-02T02:42:42.982Z,-1.42
2017-12-02T02:43:49.208Z,-1.41
2017-12-02T02:44:55.333Z,-1.47
2017-12-02T02:46:01.540Z,-1.44
2017-12-02T02:47:07.755Z,-1.44
2017-12-02T02:48:13.958Z,-1.45
2017-12-02T02:49:20.122Z,-1.47
2017-12-02T02:50:26.833Z,-1.59
2017-12-02T02:51:33.036Z,-1.58
2017-12-02T02:52:39.005Z,-1.53
2017-12-02T02:53:44.980Z,-1.49
2017-12-02T02:54:51.172Z,-1.48
2017-12-02T02:55:57.278Z,-1.43
2017-12-02T02:57:03.827Z,-1.37
2017-12-02T02:58:09.976Z,-1.36
2017-12-02T02:59:16.094Z,-1.30
2017-12-02T03:00:22.281Z,-1.25
2017-12-02T03:01:28.497Z,-1.23
2017-12-02T03:02:34.670Z,-1.27
2017-12-02T03:03:41.223Z,-1.35
2017-12-02T03:04:47.450Z,-1.41
2017-12-02T03:05:53.564Z,-1.44
2017-12-02T03:06:59.741Z,-1.46
2017-12-02T03:08:05.908Z,-1.37
2017-12-02T03:09:12.022Z,-1.29
2017-12-02T03:10:19.052Z,-1.22
2017-12-02T03:11:25.369Z,-1.22
2017-12-02T03:12:31.742Z,-1.17
2017-12-02T03:13:37.902Z,-1.15
2017-12-02T03:14:44.069Z,-1.13
2017-12-02T03:15:50.310Z,-1.10
2017-12-02T03:16:57.085Z,-1.11
2017-12-02T03:18:03.251Z,-1.09
2017-12-02T03:19:09.521Z,-1.06
2017-12-02T03:20:15.531Z,-1.10
2017-12-02T03:21:21.478Z,-1.09
2017-12-02T03:22:27.458Z,-1.07
2017-12-02T03:23:33.739Z,-1.09
2017-12-02T03:24:39.881Z,-1.08
2017-12-02T03:25:46.552Z,-1.10
2017-12-02T03:26:52.693Z,-1.11
2017-12-02T03:27:58.908Z,-1.13
2017-12-02T03:29:04.963Z,-1.13
2017-12-02T03:30:11.244Z,-1.11
2017-12-02T03:31:17.197Z,-1.11
2017-12-02T03:32:23.232Z,-1.11
2017-12-02T03:33:29.157Z,-1.10
2017-12-02T03:34:36.903Z,-1.15
2017-12-02T03:35:43.212Z,-1.18
2017-12-02T03:36:49.226Z,-1.27
2017-12-02T03:37:55.893Z,-1.32
2017-12-02T03:39:02.041Z,-1.38
2017-12-02T03:40:08.168Z,-1.44
2017-12-02T03:41:14.487Z,-1.45
2017-12-02T03:42:21.234Z,-1.51
2017-12-02T03:43:27.467Z,-1.47
2017-12-02T03:44:33.453Z,-1.47
2017-12-02T03:45:39.505Z,-1.42
2017-12-02T03:46:45.558Z,-1.36
2017-12-02T03:47:51.556Z,-1.31
2017-12-02T03:48:58.164Z,-1.35
2017-12-02T03:50:04.244Z,-1.40
2017-12-02T03:51:10.963Z,-1.44
2017-12-02T03:52:17.127Z,-1.43
2017-12-02T03:53:23.224Z,-1.41
2017-12-02T03:54:29.233Z,-1.40
2017-12-02T03:55:35.634Z,-1.37
2017-12-02T03:56:41.873Z,-1.33
2017-12-02T03:57:48.112Z,-1.26
2017-12-02T03:58:54.420Z,-1.20
2017-12-02T04:00:00.740Z,-1.13
2017-12-02T04:01:06.899Z,-1.09
2017-12-02T04:02:13.508Z,-1.05
2017-12-02T04:03:19.715Z,-1.03
2017-12-02T04:04:25.939Z,-0.97
2017-12-02T04:05:32.322Z,-0.92
2017-12-02T04:06:38.594Z,-0.85
2017-12-02T04:07:44.947Z,-0.87
2017-12-02T04:08:51.161Z,-0.86
2017-12-02T04:09:57.127Z,-0.86
2017-12-02T04:11:03.144Z,-0.88
2017-12-02T04:12:09.113Z,-0.92
2017-12-02T04:13:15.202Z,-0.94
2017-12-02T04:14:21.299Z,-0.93
2017-12-02T04:15:27.962Z,-0.93
2017-12-02T04:16:34.347Z,-0.95
2017-12-02T04:17:40.668Z,-1.02
2017-12-02T04:18:47.297Z,-1.05
2017-12-02T04:19:53.490Z,-1.06
2017-12-02T04:20:59.756Z,-1.03
2017-12-02T04:22:06.291Z,-1.09
2017-12-02T04:23:12.492Z,-1.15
2017-12-02T04:24:18.682Z,-1.15
2017-12-02T04:25:24.799Z,-1.10
2017-12-02T04:26:31.146Z,-1.10
2017-12-02T04:27:37.159Z,-1.11
2017-12-02T04:28:43.631Z,-1.13
2017-12-02T04:29:49.741Z,-1.17
2017-12-02T04:30:55.827Z,-1.19
2017-12-02T04:32:01.824Z,-1.18
2017-12-02T04:33:07.848Z,-1.20
2017-12-02T04:34:13.785Z,-1.19
2017-12-02T04:35:20.352Z,-1.16
2017-12-02T04:36:26.330Z,-1.13
2017-12-02T04:37:32.313Z,-1.11
2017-12-02T04:38:38.278Z,-1.07
2017-12-02T04:39:44.262Z,-1.04
2017-12-02T04:40:50.318Z,-1.02
2017-12-02T04:41:56.811Z,-1.03
2017-12-02T04:43:02.827Z,-1.02
2017-12-02T04:44:08.780Z,-1.00
2017-12-02T04:45:14.773Z,-0.97
2017-12-02T04:46:20.783Z,-0.94
2017-12-02T04:47:27.068Z,-0.87
2017-12-02T04:48:33.018Z,-0.82
2017-12-02T04:49:38.979Z,-0.78
2017-12-02T04:50:45.134Z,-0.77
2017-12-02T04:51:51.328Z,-0.78
2017-12-02T04:52:58.438Z,-0.77
2017-12-02T04:54:04.634Z,-0.76
2017-12-02T04:55:10.835Z,-0.79
2017-12-02T04:56:16.978Z,-0.83
2017-12-02T04:57:23.196Z,-0.87
2017-12-02T04:58:29.827Z,-0.88
2017-12-02T04:59:35.925Z,-0.93
2017-12-02T05:00:42.112Z,-0.97
2017-12-02T05:01:48.254Z,-0.94
2017-12-02T05:02:54.404Z,-0.92
2017-12-02T05:04:00.600Z,-0.87
2017-12-02T05:05:07.178Z,-0.79
2017-12-02T05:06:13.326Z,-0.76
2017-12-02T05:07:19.562Z,-0.75
2017-12-02T05:08:25.822Z,-0.74
2017-12-02T05:09:32.068Z,-0.70
2017-12-02T05:10:38.312Z,-0.63
2017-12-02T05:11:44.834Z,-0.62
2017-12-02T05:12:50.995Z,-0.64
2017-12-02T05:13:57.209Z,-0.68
2017-12-02T05:15:03.521Z,-0.77
2017-12-02T05:16:09.709Z,-0.78
2017-12-02T05:17:15.930Z,-0.79
2017-12-02T05:18:22.559Z,-0.78
2017-12-02T05:19:28.779Z,-0.80
2017-12-02T05:20:34.943Z,-0.85
2017-12-02T05:21:41.110Z,-0.89
2017-12-02T05:22:47.250Z,-0.91
2017-12-02T05:23:53.564Z,-0.91
2017-12-02T05:25:00.069Z,-0.91
2017-12-02T05:26:06.297Z,-0.96
2017-12-02T05:27:12.663Z,-0.91
2017-12-02T05:28:18.853Z,-0.84
2017-12-02T05:29:24.964Z,-0.79
2017-12-02T05:30:31.223Z,-0.82
2017-12-02T05:31:37.777Z,-0.82
2017-12-02T05:32:43.952Z,-0.78
2017-12-02T05:33:50.132Z,-0.78
2017-12-02T05:34:56.420Z,-0.78
2017-12-02T05:36:02.556Z,-0.80
2017-12-02T05:37:08.701Z,-0.77
2017-12-02T05:38:15.309Z,-0.72
2017-12-02T05:39:21.756Z,-0.69
2017-12-02T05:40:28.004Z,-0.83
2017-12-02T05:41:34.212Z,-0.82
2017-12-02T05:42:40.217Z,-0.86
2017-12-02T05:43:46.354Z,-0.96
2017-12-02T05:44:52.871Z,-0.99
2017-12-02T05:45:59.932Z,-1.00
2017-12-02T05:47:06.008Z,-1.04
2017-12-02T05:48:12.102Z,-1.04
2017-12-02T05:49:18.105Z,-1.04
2017-12-02T05:50:24.427Z,-1.07
2017-12-02T05:51:30.437Z,-1.09
2017-12-02T05:52:36.420Z,-1.07
2017-12-02T05:53:42.464Z,-1.04
2017-12-02T05:54:48.684Z,-0.98
2017-12-02T05:55:55.077Z,-0.95
2017-12-02T05:57:01.839Z,-0.89
2017-12-02T05:58:08.079Z,-0.88
2017-12-02T05:59:14.331Z,-0.89
2017-12-02T06:00:20.590Z,-0.88
2017-12-02T06:01:26.878Z,-0.83
2017-12-02T06:02:33.130Z,-0.82
2017-12-02T06:03:39.947Z,-0.81
2017-12-02T06:04:46.215Z,-0.78
2017-12-02T06:05:52.539Z,-0.74
2017-12-02T06:06:58.699Z,-0.77
2017-12-02T06:08:04.766Z,-0.78
2017-12-02T06:09:10.899Z,-0.77
2017-12-02T06:10:17.378Z,-0.75
2017-12-02T06:11:23.594Z,-0.74
2017-12-02T06:12:29.531Z,-0.73
2017-12-02T06:13:35.376Z,-0.73
2017-12-02T06:14:41.243Z,-0.74
2017-12-02T06:15:47.203Z,-0.75
2017-12-02T06:16:53.465Z,-0.80
2017-12-02T06:17:59.352Z,-0.80
2017-12-02T06:19:05.172Z,-0.82
2017-12-02T06:20:10.999Z,-0.81
2017-12-02T06:21:16.916Z,-0.79
2017-12-02T06:22:22.773Z,-0.74
2017-12-02T06:23:29.204Z,-0.75
2017-12-02T06:24:35.388Z,-0.77
2017-12-02T06:25:41.458Z,-0.76
2017-12-02T06:26:47.663Z,-0.76
2017-12-02T06:27:53.709Z,-0.79
2017-12-02T06:28:59.753Z,-0.77
2017-12-02T06:30:06.345Z,-0.80
2017-12-02T06:31:12.521Z,-0.92
2017-12-02T06:32:18.347Z,-1.00
2017-12-02T06:33:24.231Z,-1.05
2017-12-02T06:34:30.462Z,-1.03
2017-12-02T06:35:36.766Z,-1.05
2017-12-02T06:36:43.153Z,-1.01
2017-12-02T06:37:49.255Z,-0.98
2017-12-02T06:38:55.318Z,-0.97
2017-12-02T06:40:01.378Z,-0.97
2017-12-02T06:41:07.340Z,-0.98
2017-12-02T06:42:13.359Z,-0.99
2017-12-02T06:43:19.910Z,-0.97
2017-12-02T06:44:26.195Z,-0.96
2017-12-02T06:45:32.430Z,-1.01
2017-12-02T06:46:38.774Z,-1.00
2017-12-02T06:47:45.053Z,-1.00
2017-12-02T06:48:51.940Z,-0.98
2017-12-02T06:49:58.138Z,-0.97
2017-12-02T06:51:04.319Z,-0.98
2017-12-02T06:52:10.494Z,-0.96
2017-12-02T06:53:17.316Z,-0.98
2017-12-02T06:54:23.625Z,-0.98
2017-12-02T06:55:30.226Z,-1.00
2017-12-02T06:56:36.395Z,-0.99
2017-12-02T06:57:42.532Z,-0.99
2017-12-02T06:58:48.733Z,-1.02
2017-12-02T06:59:55.041Z,-1.02
2017-12-02T07:01:01.253Z,-1.08
2017-12-02T07:02:07.593Z,-1.11
2017-12-02T07:03:14.161Z,-1.11
2017-12-02T07:04:20.298Z,-1.14
2017-12-02T07:05:26.589Z,-1.13
2017-12-02T07:06:32.897Z,-1.14
2017-12-02T07:07:39.519Z,-1.14
2017-12-02T07:08:46.146Z,-1.12
2017-12-02T07:09:52.505Z,-1.12
2017-12-02T07:10:58.882Z,-1.14
2017-12-02T07:12:05.189Z,-1.13
2017-12-02T07:13:11.567Z,-1.09
2017-12-02T07:14:18.386Z,-1.01
2017-12-02T07:15:24.776Z,-1.01
2017-12-02T07:16:31.120Z,-0.99
2017-12-02T07:17:37.471Z,-0.97
2017-12-02T07:18:43.868Z,-0.97
2017-12-02T07:19:50.191Z,-1.01
2017-12-02T07:20:56.984Z,-1.02
2017-12-02T07:22:03.337Z,-0.96
2017-12-02T07:23:09.649Z,-1.02
2017-12-02T07:24:16.063Z,-1.10
2017-12-02T07:25:22.320Z,-1.11
2017-12-02T07:26:28.905Z,-1.08
2017-12-02T07:27:35.588Z,-1.07
2017-12-02T07:28:41.869Z,-1.10
2017-12-02T07:29:48.543Z,-1.08
2017-12-02T07:30:54.882Z,-1.05
2017-12-02T07:32:01.268Z,-0.98
2017-12-02T07:33:07.473Z,-0.93
2017-12-02T07:34:14.577Z,-0.89
2017-12-02T07:35:20.813Z,-0.84
2017-12-02T07:36:27.037Z,-0.77
2017-12-02T07:37:33.290Z,-0.71
2017-12-02T07:38:39.423Z,-0.69
2017-12-02T07:39:45.457Z,-0.69
2017-12-02T07:40:51.888Z,-0.69
2017-12-02T07:41:58.213Z,-0.68
2017-12-02T07:43:04.274Z,-0.64
2017-12-02T07:44:10.442Z,-0.59
2017-12-02T07:45:16.570Z,-0.54
2017-12-02T07:46:22.636Z,-0.52
2017-12-02T07:47:29.151Z,-0.50
2017-12-02T07:48:35.332Z,-0.50
2017-12-02T07:49:41.373Z,-0.52
2017-12-02T07:50:47.477Z,-0.52
2017-12-02T07:51:53.545Z,-0.56
2017-12-02T07:52:59.884Z,-0.55
2017-12-02T07:54:06.399Z,-0.50
2017-12-02T07:55:12.711Z,-0.50
2017-12-02T07:56:18.928Z,-0.46
2017-12-02T07:57:25.162Z,-0.46
2017-12-02T07:58:31.469Z,-0.45
2017-12-02T07:59:37.769Z,-0.47
2017-12-02T08:00:44.399Z,-0.47
2017-12-02T08:01:50.649Z,-0.48
2017-12-02T08:02:56.859Z,-0.48
2017-12-02T08:04:02.952Z,-0.46
2017-12-02T08:05:08.953Z,-0.45
2017-12-02T08:06:15.045Z,-0.41
2017-12-02T08:07:21.059Z,-0.37
2017-12-02T08:08:27.030Z,-0.29
2017-12-02T08:09:33.065Z,-0.20
2017-12-02T08:10:39.213Z,-0.15
2017-12-02T08:11:45.493Z,-0.12
2017-12-02T08:12:52.184Z,-0.11
2017-12-02T08:13:58.352Z,-0.14
2017-12-02T08:15:04.668Z,-0.09
2017-12-02T08:16:10.969Z,-0.04
2017-12-02T08:17:17.230Z,0.00
2017-12-02T08:18:23.463Z,0.05
2017-12-02T08:19:29.702Z,0.09
2017-12-02T08:20:35.875Z,0.09
2017-12-02T08:21:42.121Z,0.10
2017-12-02T08:22:48.316Z,0.05
2017-12-02T08:23:54.514Z,0.07
2017-12-02T08:25:00.799Z,0.06
2017-12-02T08:26:06.822Z,0.02
2017-12-02T08:27:12.972Z,-0.04
2017-12-02T08:28:19.222Z,-0.08
2017-12-02T08:29:25.376Z,-0.01
2017-12-02T08:30:31.663Z,0.01
2017-12-02T08:31:38.410Z,0.05
2017-12-02T08:32:45.096Z,0.10
2017-12-02T08:33:53.463Z,0.12
2017-12-02T08:34:59.703Z,0.15
2017-12-02T08:36:05.890Z,0.20
2017-12-02T08:37:12.244Z,0.25
2017-12-02T08:38:18.769Z,0.28
2017-12-02T08:39:25.008Z,0.31
2017-12-02T08:40:31.029Z,0.39
2017-12-02T08:41:37.235Z,0.47
2017-12-02T08:42:43.306Z,0.53
2017-12-02T08:43:49.424Z,0.55
2017-12-02T08:44:55.950Z,0.55
2017-12-02T08:46:02.630Z,0.59
2017-12-02T08:47:08.751Z,0.61
2017-12-02T08:48:14.609Z,0.64
2017-12-02T08:49:20.650Z,0.68
2017-12-02T08:50:27.202Z,0.73
2017-12-02T08:51:33.375Z,0.74
2017-12-02T08:52:39.651Z,0.79
2017-12-02T08:53:45.739Z,0.81
2017-12-02T08:54:51.870Z,0.85
2017-12-02T08:55:58.264Z,0.77
2017-12-02T08:57:04.413Z,0.80
2017-12-02T08:58:10.432Z,0.78
2017-12-02T08:59:16.532Z,0.81
2017-12-02T09:00:22.609Z,0.83
2017-12-02T09:01:29.071Z,0.72
2017-12-02T09:02:35.146Z,0.69
2017-12-02T09:03:41.631Z,0.77
2017-12-02T09:04:47.825Z,0.70
2017-12-02T09:05:53.906Z,0.73
2017-12-02T09:07:00.264Z,0.77
2017-12-02T09:08:06.362Z,0.84
2017-12-02T09:09:12.310Z,0.82
2017-12-02T09:10:18.439Z,0.85
2017-12-02T09:11:24.807Z,0.91
2017-12-02T09:12:31.285Z,0.97
2017-12-02T09:13:37.424Z,1.02
2017-12-02T09:14:43.674Z,1.10
2017-12-02T09:15:49.871Z,1.18
2017-12-02T09:16:55.985Z,1.23
2017-12-02T09:18:02.110Z,1.29
2017-12-02T09:19:08.732Z,1.23
2017-12-02T09:20:14.799Z,1.16
2017-12-02T09:21:20.931Z,1.24
2017-12-02T09:22:27.291Z,1.34
2017-12-02T09:23:33.559Z,1.46
2017-12-02T09:24:39.915Z,1.50
2017-12-02T09:25:46.655Z,1.60
2017-12-02T09:26:52.909Z,1.62
2017-12-02T09:27:59.363Z,1.61
2017-12-02T09:29:05.767Z,1.74
2017-12-02T09:30:12.173Z,1.84
2017-12-02T09:31:18.928Z,1.92
2017-12-02T09:32:25.301Z,2.02
2017-12-02T09:33:31.606Z,2.07
2017-12-02T09:34:38.173Z,2.11
2017-12-02T09:35:44.414Z,2.05
2017-12-02T09:36:50.653Z,2.12
2017-12-02T09:37:57.255Z,2.18
2017-12-02T09:39:03.547Z,2.17
2017-12-02T09:40:09.947Z,2.16
2017-12-02T09:41:16.330Z,2.23
2017-12-02T09:42:22.652Z,2.28
2017-12-02T09:43:29.335Z,2.27
2017-12-02T09:44:35.947Z,2.29
2017-12-02T09:45:42.108Z,2.32
2017-12-02T09:46:48.198Z,2.28
2017-12-02T09:47:54.280Z,2.31
2017-12-02T09:49:00.359Z,1.94
2017-12-02T09:50:06.723Z,1.94
2017-12-02T09:51:12.796Z,1.80
2017-12-02T09:52:19.201Z,1.68
2017-12-02T09:53:25.442Z,1.47
2017-12-02T09:54:31.746Z,1.36
2017-12-02T09:55:38.275Z,1.43
2017-12-02T09:56:44.511Z,1.42
2017-12-02T09:57:50.871Z,1.47
2017-12-02T09:58:57.138Z,1.42
2017-12-02T10:00:03.449Z,1.37
2017-12-02T10:01:09.753Z,1.20
2017-12-02T10:02:16.278Z,1.19
2017-12-02T10:03:22.621Z,1.11
2017-12-02T10:04:28.851Z,0.99
2017-12-02T10:05:35.073Z,1.02
2017-12-02T10:06:41.654Z,1.00
2017-12-02T10:07:47.865Z,0.95
2017-12-02T10:08:55.257Z,0.93
2017-12-02T10:10:03.555Z,0.95
2017-12-02T10:11:10.020Z,1.02
2017-12-02T10:12:16.302Z,1.07
2017-12-02T10:13:22.667Z,1.10
2017-12-02T10:14:28.980Z,1.09
2017-12-02T10:15:35.522Z,1.17
2017-12-02T10:16:42.089Z,1.25
2017-12-02T10:17:48.504Z,1.42
2017-12-02T10:18:54.919Z,1.63
2017-12-02T10:20:01.337Z,1.82
2017-12-02T10:21:08.254Z,1.98
2017-12-02T10:22:14.731Z,2.06
2017-12-02T10:23:21.311Z,2.18
2017-12-02T10:24:27.667Z,2.37
2017-12-02T10:25:34.278Z,2.58
2017-12-02T10:26:40.596Z,2.86
2017-12-02T10:27:47.237Z,3.03
2017-12-02T10:28:53.782Z,3.17
2017-12-02T10:30:00.035Z,3.22
2017-12-02T10:31:06.253Z,3.27
2017-12-02T10:32:12.518Z,3.29
2017-12-02T10:33:18.957Z,3.26
2017-12-02T10:34:26.033Z,3.24
2017-12-02T10:35:32.416Z,3.26
2017-12-02T10:36:38.760Z,3.17
2017-12-02T10:37:44.986Z,3.18
2017-12-02T10:38:51.066Z,3.13
2017-12-02T10:39:57.354Z,3.22
2017-12-02T10:41:03.994Z,3.20
2017-12-02T10:42:10.404Z,3.22
2017-12-02T10:43:16.720Z,3.15
2017-12-02T10:44:23.175Z,3.06
2017-12-02T10:45:29.604Z,2.86
2017-12-02T10:47:40.991Z,2.76
2017-12-02T10:48:46.978Z,2.71
2017-12-02T10:49:53.052Z,2.68
2017-12-02T10:50:59.982Z,2.69
2017-12-02T10:52:06.083Z,2.75
2017-12-02T10:53:19.120Z,2.67
2017-12-02T10:54:27.489Z,2.77
2017-12-02T10:55:33.602Z,2.87
2017-12-02T10:56:40.215Z,2.90
2017-12-02T10:57:46.338Z,2.94
2017-12-02T10:58:52.495Z,2.93
2017-12-02T10:59:59.147Z,2.94
2017-12-02T11:01:05.832Z,2.91
2017-12-02T11:02:11.719Z,2.84
2017-12-02T11:03:17.662Z,2.77
2017-12-02T11:04:23.544Z,2.69
2017-12-02T11:05:29.779Z,2.74
2017-12-02T11:06:36.329Z,2.72
2017-12-02T11:07:42.887Z,2.70
2017-12-02T11:08:49.157Z,2.66
2017-12-02T11:09:55.540Z,2.57
2017-12-02T11:11:01.781Z,2.52
2017-12-02T11:12:08.350Z,2.40
2017-12-02T11:13:14.942Z,2.35
2017-12-02T11:14:21.254Z,2.29
2017-12-02T11:15:27.392Z,2.21
2017-12-02T11:16:33.633Z,2.21
2017-12-02T11:17:39.862Z,2.28
2017-12-02T11:18:46.160Z,2.35
2017-12-02T11:19:52.927Z,2.39
2017-12-02T11:20:59.356Z,2.38
2017-12-02T11:22:07.081Z,2.37
2017-12-02T11:23:13.749Z,2.41
2017-12-02T11:24:19.821Z,2.45
2017-12-02T11:25:25.865Z,2.48
2017-12-02T11:26:32.466Z,2.53
2017-12-02T11:27:38.465Z,2.56
2017-12-02T11:28:44.513Z,2.37
2017-12-02T11:29:50.633Z,2.36
2017-12-02T11:30:56.526Z,2.37
2017-12-02T11:32:02.409Z,2.40
2017-12-02T11:33:08.718Z,2.32
2017-12-02T11:34:15.359Z,2.33
2017-12-02T11:35:23.592Z,2.38
2017-12-02T11:36:29.640Z,2.36
2017-12-02T11:37:35.743Z,2.32
2017-12-02T11:38:42.063Z,2.29
2017-12-02T11:39:49.923Z,2.39
2017-12-02T11:40:56.842Z,2.48
2017-12-02T11:42:03.564Z,2.62
2017-12-02T11:43:10.204Z,2.73
2017-12-02T11:44:17.406Z,2.85
2017-12-02T11:45:25.632Z,3.02
2017-12-02T11:46:33.829Z,3.17
2017-12-02T11:47:39.944Z,3.20
2017-12-02T11:48:46.693Z,3.30
2017-12-02T11:49:53.622Z,3.37
2017-12-02T11:52:05.520Z,3.72
2017-12-02T11:53:12.247Z,4.25
2017-12-02T11:54:18.987Z,4.84
2017-12-02T11:55:25.215Z,5.16
2017-12-02T11:56:31.525Z,5.56
2017-12-02T11:57:37.619Z,5.88
2017-12-02T11:58:43.788Z,6.14
2017-12-02T11:59:50.437Z,6.35
2017-12-02T12:00:58.603Z,6.37
2017-12-02T12:02:05.043Z,6.38
2017-12-02T12:03:11.447Z,6.37
2017-12-02T12:04:18.688Z,6.52
2017-12-02T12:05:26.827Z,6.57
2017-12-02T12:06:33.653Z,6.53
2017-12-02T12:07:40.340Z,6.35
2017-12-02T12:08:46.535Z,6.30
2017-12-02T12:09:54.492Z,6.53
2017-12-02T12:11:00.722Z,6.72
2017-12-02T12:12:07.700Z,6.87
2017-12-02T12:13:14.952Z,6.93
2017-12-02T12:14:21.961Z,7.06
2017-12-02T12:15:28.921Z,7.21
2017-12-02T12:16:35.522Z,6.99
2017-12-02T12:17:41.868Z,6.94
2017-12-02T12:18:49.724Z,6.97
2017-12-02T12:19:57.079Z,6.64
2017-12-02T12:21:03.558Z,6.39
2017-12-02T12:22:10.080Z,5.96
2017-12-02T12:23:16.566Z,5.71
2017-12-02T12:24:22.823Z,5.47
2017-12-02T12:25:30.205Z,5.25
2017-12-02T12:26:36.729Z,5.13
2017-12-02T12:27:43.536Z,5.03
2017-12-02T12:28:50.037Z,4.80
2017-12-02T12:29:56.581Z,4.58
2017-12-02T12:31:03.639Z,4.52
2017-12-02T12:32:10.093Z,4.49
2017-12-02T12:33:17.351Z,4.48
2017-12-02T12:34:23.729Z,4.37
2017-12-02T12:35:30.226Z,4.25
2017-12-02T12:36:36.752Z,4.11
2017-12-02T12:37:43.309Z,4.00
2017-12-02T12:38:50.420Z,3.91
2017-12-02T12:39:58.242Z,3.89
2017-12-02T12:41:04.676Z,3.90
2017-12-02T12:42:11.339Z,3.92
2017-12-02T12:43:17.828Z,3.81
2017-12-02T12:44:24.239Z,3.82
2017-12-02T12:45:30.609Z,3.82
2017-12-02T12:46:37.090Z,3.79
2017-12-02T12:47:43.619Z,3.67
2017-12-02T12:48:51.709Z,3.59
2017-12-02T12:49:58.215Z,3.53
2017-12-02T12:51:04.858Z,3.54
2017-12-02T12:52:11.841Z,3.62
2017-12-02T12:53:18.439Z,3.75
2017-12-02T12:54:25.409Z,3.75
2017-12-02T12:55:32.575Z,3.71
2017-12-02T12:56:39.764Z,3.67
2017-12-02T12:57:46.108Z,3.66
2017-12-02T12:58:52.439Z,3.69
2017-12-02T12:59:58.923Z,3.72
2017-12-02T13:01:05.480Z,3.75
2017-12-02T13:02:11.793Z,3.75
2017-12-02T13:03:18.823Z,3.75
2017-12-02T13:04:26.743Z,3.78
2017-12-02T13:05:33.014Z,3.79
2017-12-02T13:06:39.450Z,3.76
2017-12-02T13:07:46.261Z,3.77
2017-12-02T13:08:54.825Z,3.74
2017-12-02T13:10:01.647Z,3.76
2017-12-02T13:11:07.894Z,3.66
2017-12-02T13:12:14.786Z,3.56
2017-12-02T13:13:22.382Z,3.37
2017-12-02T13:14:28.749Z,3.42
2017-12-02T13:15:35.179Z,3.47
2017-12-02T13:16:42.527Z,3.43
2017-12-02T13:17:48.903Z,3.46
2017-12-02T13:18:55.236Z,3.49
2017-12-02T13:20:02.313Z,3.49
2017-12-02T13:21:08.799Z,3.47
2017-12-02T13:22:19.382Z,3.24
2017-12-02T13:23:25.873Z,2.86
2017-12-02T13:24:32.801Z,2.70
2017-12-02T13:25:39.293Z,2.67
2017-12-02T13:26:46.237Z,2.74
2017-12-02T13:27:54.376Z,2.70
2017-12-02T13:29:02.103Z,2.45
2017-12-02T13:30:11.637Z,2.19
2017-12-02T13:31:18.935Z,2.02
2017-12-02T13:32:25.645Z,2.04
2017-12-02T13:33:32.051Z,2.12
2017-12-02T13:34:38.938Z,2.13
2017-12-02T13:35:47.005Z,2.20
2017-12-02T13:36:53.775Z,2.16
2017-12-02T13:37:59.990Z,2.19
2017-12-02T13:39:06.812Z,2.17
2017-12-02T13:40:15.264Z,2.26
2017-12-02T13:41:22.043Z,2.36
2017-12-02T13:42:28.476Z,2.28
2017-12-02T13:43:35.060Z,2.23
2017-12-02T13:44:41.443Z,2.28
2017-12-02T13:45:47.952Z,2.21
2017-12-02T13:46:54.721Z,2.24
2017-12-02T13:48:01.867Z,2.26
2017-12-02T13:49:08.649Z,2.19
2017-12-02T13:50:17.848Z,2.26
2017-12-02T13:51:25.758Z,2.25
2017-12-02T13:52:32.671Z,2.28
2017-12-02T13:53:39.752Z,2.31
2017-12-02T13:54:47.381Z,2.29
2017-12-02T13:55:54.484Z,2.18
2017-12-02T13:57:00.936Z,2.19
2017-12-02T13:58:07.481Z,2.16
2017-12-02T13:59:13.859Z,2.17
2017-12-02T14:00:20.456Z,2.11
2017-12-02T14:01:28.058Z,2.10
2017-12-02T14:02:34.308Z,2.11
2017-12-02T14:03:40.679Z,2.08
2017-12-02T14:04:47.387Z,2.08
2017-12-02T14:05:53.711Z,2.06
2017-12-02T14:07:00.129Z,2.03
2017-12-02T14:08:07.070Z,2.01
2017-12-02T14:09:17.358Z,1.98
2017-12-02T14:10:25.475Z,1.95
2017-12-02T14:11:34.815Z,1.88
2017-12-02T14:12:41.600Z,1.81
2017-12-02T14:13:48.683Z,1.73
2017-12-02T14:14:56.068Z,1.73
2017-12-02T14:16:03.306Z,1.75
2017-12-02T14:17:09.907Z,1.81
2017-12-02T14:18:16.579Z,1.84
2017-12-02T14:19:22.983Z,1.82
2017-12-02T14:20:30.124Z,1.77
2017-12-02T14:21:36.939Z,1.78
2017-12-02T14:22:43.742Z,1.59
2017-12-02T14:23:51.179Z,1.62
2017-12-02T14:24:58.562Z,1.64
2017-12-02T14:26:06.292Z,1.55
2017-12-02T14:27:17.684Z,1.59
2017-12-02T14:28:25.411Z,1.69
2017-12-02T14:29:31.798Z,1.73